Time;durP1;ratioP1;P1;durP2;ratioP2;P2;SDS_P1;SDS_P2;PMS_P1;PMS_P2;Temp;Humidity;BMP_temperature;BMP_pressure;BME280_temperature;BME280_humidity;BME280_pressure;Samples;Min_cycle;Max_cycle;Signal;HPM_P1;HPM_P2
2023/05/02 04:21:38;;;;;;;11.93;2.45;;;14.20;63.70;;;;;;5142320;24;20070;-77
2023/05/02 04:24:04;;;;;;;33.28;2.50;;;14.20;63.90;;;;;;4807501;29;20463;-77
2023/05/02 04:26:30;;;;;;;10.07;1.98;;;14.30;63.90;;;;;;4808078;29;20433;-74
2023/05/02 04:28:56;;;;;;;18.10;2.33;;;14.40;63.90;;;;;;4808857;29;20083;-78
2023/05/02 04:31:21;;;;;;;15.07;2.95;;;14.50;63.80;;;;;;4808629;29;20458;-76
2023/05/02 04:33:50;;;;;;;19.05;3.35;;;14.70;64.00;;;;;;4808782;29;20055;-75
2023/05/02 04:36:16;;;;;;;17.77;2.75;;;14.90;64.00;;;;;;4792775;29;20050;-76
2023/05/02 04:38:41;;;;;;;15.23;2.85;;;15.00;63.80;;;;;;4792197;29;20375;-85
2023/05/02 04:41:07;;;;;;;17.85;3.10;;;15.10;64.00;;;;;;4792314;29;20065;-76
2023/05/02 04:43:33;;;;;;;19.08;3.08;;;15.20;63.80;;;;;;4792167;29;20073;-73
2023/05/02 04:45:59;;;;;;;22.40;3.35;;;15.30;63.80;;;;;;4808175;29;20047;-76
2023/05/02 04:48:25;;;;;;;18.27;2.88;;;15.30;63.80;;;;;;4792870;29;20047;-75
2023/05/02 04:50:54;;;;;;;14.77;3.25;;;15.40;64.30;;;;;;4807423;29;20051;-77
2023/05/02 04:53:21;;;;;;;22.15;3.22;;;15.40;64.60;;;;;;4808396;29;20352;-76
2023/05/02 04:55:47;;;;;;;24.70;3.50;;;15.50;64.90;;;;;;4808095;29;20069;-72
2023/05/02 04:58:12;;;;;;;22.00;3.85;;;15.50;65.50;;;;;;4808289;29;20047;-78
2023/05/02 05:00:38;;;;;;;28.77;3.30;;;15.50;65.40;;;;;;4805406;29;20133;-78
2023/05/02 05:03:05;;;;;;;13.13;2.63;;;15.50;65.60;;;;;;4800193;29;20052;-77
2023/05/02 05:05:31;;;;;;;27.67;3.95;;;15.50;60.00;;;;;;4798003;29;20475;-77
2023/05/02 05:07:57;;;;;;;13.07;2.67;;;15.50;65.40;;;;;;4792215;29;20137;-77
2023/05/02 05:10:26;;;;;;;17.08;3.25;;;15.50;65.50;;;;;;4807607;29;20438;-79
2023/05/02 05:12:52;;;;;;;18.75;3.80;;;15.50;66.70;;;;;;4808036;29;20050;-77
2023/05/02 05:15:21;;;;;;;17.88;2.92;;;15.60;66.90;;;;;;4808335;29;20401;-77
2023/05/02 05:17:47;;;;;;;19.23;3.13;;;15.70;67.00;;;;;;4791959;29;20093;-78
2023/05/02 05:20:12;;;;;;;26.33;3.63;;;15.70;66.70;;;;;;4792217;29;20086;-76
2023/05/02 05:22:40;;;;;;;22.08;3.35;;;15.90;67.70;;;;;;4807430;29;20073;-81
2023/05/02 05:25:06;;;;;;;27.80;4.72;;;15.90;68.30;;;;;;4807897;29;20035;-76
2023/05/02 05:27:36;;;;;;;26.20;4.30;;;15.90;66.00;;;;;;4807875;29;20046;-81
2023/05/02 05:30:03;;;;;;;16.88;3.47;;;15.90;66.70;;;;;;4807038;29;20082;-83
2023/05/02 05:32:29;;;;;;;26.35;3.97;;;15.90;65.70;;;;;;4776865;29;20047;-76
2023/05/02 05:34:55;;;;;;;36.63;4.60;;;16.00;66.90;;;;;;4807824;29;20115;-75
2023/05/02 05:37:20;;;;;;;23.15;4.05;;;16.00;67.30;;;;;;4818658;29;20053;-72
2023/05/02 05:39:47;;;;;;;23.52;3.92;;;16.00;65.90;;;;;;4826517;29;20130;-76
2023/05/02 05:42:12;;;;;;;24.95;4.47;;;16.00;61.90;;;;;;4826078;29;20086;-76
2023/05/02 05:44:39;;;;;;;23.55;4.05;;;15.90;61.70;;;;;;4813636;29;20094;-75
2023/05/02 05:47:05;;;;;;;29.00;4.47;;;15.80;61.80;;;;;;4807706;29;20434;-75
2023/05/02 05:49:31;;;;;;;26.65;4.60;;;15.80;63.80;;;;;;4807710;29;20086;-75
2023/05/02 05:51:57;;;;;;;31.17;3.70;;;15.90;65.30;;;;;;4808125;29;20099;-75
2023/05/02 05:54:23;;;;;;;26.48;4.22;;;15.90;65.30;;;;;;4807993;29;20083;-75
2023/05/02 05:56:48;;;;;;;20.13;3.63;;;16.00;66.10;;;;;;4807351;29;20104;-78
2023/05/02 05:59:14;;;;;;;25.13;4.28;;;16.00;65.90;;;;;;4806909;29;20046;-76
2023/05/02 06:01:40;;;;;;;23.00;4.13;;;16.10;64.60;;;;;;4806501;29;20359;-73
2023/05/02 06:04:06;;;;;;;24.00;3.95;;;16.00;63.00;;;;;;4811101;29;20082;-74
2023/05/02 06:06:32;;;;;;;22.33;3.83;;;16.10;61.50;;;;;;4811545;29;20058;-71
2023/05/02 06:08:59;;;;;;;22.17;3.47;;;16.00;59.30;;;;;;4811057;29;20043;-71
2023/05/02 06:11:25;;;;;;;20.88;3.45;;;15.50;53.10;;;;;;4780071;29;20139;-70
2023/05/02 06:13:51;;;;;;;21.00;4.10;;;15.40;54.00;;;;;;4811291;29;20529;-69
2023/05/02 06:16:17;;;;;;;13.35;2.67;;;15.40;56.40;;;;;;4811214;29;20046;-69
2023/05/02 06:18:44;;;;;;;18.13;3.13;;;15.20;55.10;;;;;;4811565;29;20051;-72
2023/05/02 06:21:09;;;;;;;21.38;3.22;;;15.20;56.40;;;;;;4810524;29;20613;-71
2023/05/02 06:23:35;;;;;;;14.30;2.78;;;15.30;57.30;;;;;;4810538;29;20157;-71
2023/05/02 06:26:02;;;;;;;13.63;2.78;;;15.30;57.50;;;;;;4810589;29;20059;-71
2023/05/02 06:28:28;;;;;;;18.33;3.17;;;15.40;57.80;;;;;;4811299;29;20497;-72
2023/05/02 06:31:02;;;;;;;19.40;2.58;;;15.40;58.20;;;;;;4810912;29;20103;-75
2023/05/02 06:33:28;;;;;;;11.82;2.47;;;15.30;54.90;;;;;;4810172;29;20066;-71
2023/05/02 06:35:54;;;;;;;13.68;2.22;;;15.30;57.90;;;;;;4810678;29;20340;-71
2023/05/02 06:38:20;;;;;;;13.35;2.60;;;15.40;58.80;;;;;;4810369;29;20484;-72
2023/05/02 06:40:46;;;;;;;11.63;2.78;;;15.40;59.20;;;;;;4810552;29;20057;-72
2023/05/02 06:43:13;;;;;;;11.25;2.72;;;15.40;59.40;;;;;;4810881;29;20062;-71
2023/05/02 06:45:39;;;;;;;7.50;2.45;;;15.40;59.70;;;;;;4810595;29;20154;-71
2023/05/02 06:48:06;;;;;;;13.35;2.35;;;15.40;59.90;;;;;;4794311;29;20463;-71
2023/05/02 06:50:32;;;;;;;12.48;2.88;;;15.40;60.10;;;;;;4810814;29;20340;-72
2023/05/02 06:52:58;;;;;;;13.00;2.85;;;15.40;60.00;;;;;;4810048;29;20518;-74
2023/05/02 06:55:23;;;;;;;19.30;2.95;;;15.40;60.70;;;;;;4810128;29;20141;-74
2023/05/02 06:57:49;;;;;;;13.88;2.65;;;15.50;61.20;;;;;;4810338;29;20351;-73
2023/05/02 07:00:16;;;;;;;15.77;2.75;;;15.50;61.30;;;;;;4810258;29;20047;-73
2023/05/02 07:02:46;;;;;;;16.48;3.03;;;15.50;61.60;;;;;;4810379;29;20058;-73
2023/05/02 07:05:14;;;;;;;13.45;3.15;;;15.40;61.80;;;;;;4810798;29;20413;-73
2023/05/02 07:07:41;;;;;;;11.93;2.53;;;15.40;62.10;;;;;;4810514;29;20047;-73
2023/05/02 07:10:07;;;;;;;10.13;2.90;;;15.50;62.30;;;;;;4810151;29;20051;-73
2023/05/02 07:12:33;;;;;;;11.60;2.40;;;15.50;62.60;;;;;;4809673;29;20122;-73
2023/05/02 07:14:59;;;;;;;13.35;2.72;;;15.50;62.70;;;;;;4793483;29;20134;-74
2023/05/02 07:17:25;;;;;;;9.65;2.28;;;15.50;63.00;;;;;;4809905;29;20076;-76
2023/05/02 07:19:51;;;;;;;11.70;2.60;;;15.50;63.20;;;;;;4809831;29;20127;-73
2023/05/02 07:22:17;;;;;;;14.65;3.10;;;15.40;62.20;;;;;;4809797;29;20067;-73
2023/05/02 07:24:43;;;;;;;14.70;3.22;;;15.50;63.40;;;;;;4808856;29;20527;-71
2023/05/02 07:27:10;;;;;;;19.95;2.65;;;15.50;63.50;;;;;;4810500;29;20400;-72
2023/05/02 07:29:36;;;;;;;19.55;3.85;;;15.50;63.50;;;;;;4809974;29;20063;-73
2023/05/02 07:32:02;;;;;;;24.25;3.55;;;15.50;63.90;;;;;;4809241;29;20363;-71
2023/05/02 07:34:29;;;;;;;26.92;3.60;;;15.50;64.30;;;;;;4809451;29;20119;-71
2023/05/02 07:36:55;;;;;;;26.17;3.55;;;15.50;64.60;;;;;;4809216;29;20057;-73
2023/05/02 07:39:22;;;;;;;18.88;3.65;;;15.50;64.50;;;;;;4810036;29;20133;-73
2023/05/02 07:41:53;;;;;;;20.33;2.90;;;15.50;62.60;;;;;;4809449;29;20050;-71
2023/05/02 07:44:20;;;;;;;19.27;3.53;;;15.50;60.20;;;;;;4810218;29;20116;-70
2023/05/02 07:46:46;;;;;;;24.17;3.30;;;15.50;59.00;;;;;;4809373;29;20043;-71
2023/05/02 07:49:12;;;;;;;20.63;4.35;;;15.40;58.70;;;;;;4800468;29;20396;-69
2023/05/02 07:51:41;;;;;;;19.55;3.17;;;15.50;59.20;;;;;;4807568;29;20051;-71
2023/05/02 07:54:18;;;;;;;21.65;4.10;;;15.50;59.60;;;;;;4809430;29;20055;-78
2023/05/02 07:56:44;;;;;;;17.70;4.15;;;15.50;59.80;;;;;;4803881;29;20117;-76
2023/05/02 07:59:10;;;;;;;24.35;3.42;;;15.50;59.60;;;;;;4792506;29;20134;-73
2023/05/02 08:01:36;;;;;;;16.05;2.88;;;15.50;59.10;;;;;;4809211;29;20137;-72
2023/05/02 08:04:03;;;;;;;19.88;3.67;;;15.50;59.00;;;;;;4809932;29;20365;-72
2023/05/02 08:06:29;;;;;;;22.35;3.00;;;15.50;59.10;;;;;;4809064;29;20054;-73
2023/05/02 08:08:55;;;;;;;21.35;3.28;;;15.50;59.10;;;;;;4808505;29;20051;-72
2023/05/02 08:11:24;;;;;;;18.70;3.83;;;15.50;59.20;;;;;;4808693;29;20054;-72
2023/05/02 08:13:50;;;;;;;14.07;3.28;;;15.50;59.30;;;;;;4808759;29;20130;-73
2023/05/02 08:16:16;;;;;;;11.25;2.50;;;15.50;59.40;;;;;;4809339;29;20375;-73
2023/05/02 08:18:42;;;;;;;13.50;3.08;;;15.50;59.50;;;;;;4808815;29;20046;-73
2023/05/02 08:21:07;;;;;;;16.10;3.08;;;15.50;59.70;;;;;;4808686;29;20086;-72
2023/05/02 08:23:33;;;;;;;11.85;2.50;;;15.50;59.80;;;;;;4808957;29;20055;-73
2023/05/02 08:25:59;;;;;;;13.63;2.95;;;15.50;59.80;;;;;;4808308;29;20051;-72
2023/05/02 08:28:25;;;;;;;18.88;2.88;;;15.50;60.60;;;;;;4809180;29;20383;-72
2023/05/02 08:30:51;;;;;;;13.00;2.35;;;15.50;60.10;;;;;;4808394;29;20054;-73
2023/05/02 08:33:16;;;;;;;9.35;2.22;;;15.50;60.20;;;;;;4808482;29;20066;-73
2023/05/02 08:35:42;;;;;;;8.90;2.35;;;15.50;60.30;;;;;;4808655;29;20047;-73
2023/05/02 08:38:08;;;;;;;11.18;2.60;;;15.50;60.40;;;;;;4808049;29;20046;-72
2023/05/02 08:40:37;;;;;;;10.70;2.58;;;15.50;60.40;;;;;;4792734;29;20050;-75
2023/05/02 08:43:04;;;;;;;10.52;2.10;;;15.50;60.50;;;;;;4807924;29;20051;-74
2023/05/02 08:45:44;;;;;;;9.55;2.45;;;15.50;60.70;;;;;;4808347;29;20101;-74
2023/05/02 08:48:12;;;;;;;14.18;2.58;;;15.50;60.90;;;;;;4808375;29;20054;-74
2023/05/02 08:50:44;;;;;;;9.15;2.00;;;15.50;60.90;;;;;;4808517;29;20073;-75
2023/05/02 08:53:11;;;;;;;11.40;2.08;;;15.50;61.10;;;;;;4808475;29;20090;-73
2023/05/02 08:55:39;;;;;;;10.50;2.30;;;15.50;61.20;;;;;;4808286;29;20054;-74
2023/05/02 08:58:06;;;;;;;8.73;1.83;;;15.50;61.30;;;;;;4808174;29;20065;-75
2023/05/02 09:00:36;;;;;;;8.20;1.90;;;15.50;61.40;;;;;;4808168;29;20046;-74
2023/05/02 09:03:17;;;;;;;9.30;1.67;;;15.50;61.50;;;;;;4807397;29;20051;-75
2023/05/02 09:05:46;;;;;;;9.13;2.28;;;15.50;61.70;;;;;;4805526;29;20119;-73
2023/05/02 09:08:11;;;;;;;9.57;1.98;;;15.50;61.70;;;;;;4807603;29;20080;-72
2023/05/02 09:10:40;;;;;;;11.10;1.90;;;15.50;61.90;;;;;;4807333;29;20133;-77
2023/05/02 09:13:30;;;;;;;5.57;2.00;;;15.50;62.10;;;;;;4807975;29;20050;-73
2023/05/02 09:16:06;;;;;;;7.65;1.83;;;15.50;62.70;;;;;;4798507;29;20458;-72
2023/05/02 09:18:53;;;;;;;15.45;2.53;;;15.50;63.00;;;;;;4807780;29;20101;-75
2023/05/02 09:21:24;;;;;;;11.65;2.03;;;15.50;62.90;;;;;;4808065;29;20084;-72
2023/05/02 09:23:52;;;;;;;7.95;1.75;;;15.60;62.80;;;;;;4808192;29;20055;-72
2023/05/02 09:26:26;;;;;;;8.77;1.90;;;15.70;62.60;;;;;;4807845;29;20138;-72
2023/05/02 09:28:57;;;;;;;11.82;1.60;;;15.90;62.60;;;;;;4806734;29;20055;-74
2023/05/02 09:31:35;;;;;;;13.25;2.05;;;16.00;63.10;;;;;;4798381;29;20058;-74
2023/05/02 09:34:15;;;;;;;11.50;2.35;;;16.10;62.40;;;;;;4806436;29;20138;-76
2023/05/02 09:36:45;;;;;;;18.80;2.47;;;16.20;62.10;;;;;;4808077;29;20544;-79
2023/05/02 09:39:31;;;;;;;12.27;2.08;;;16.20;60.90;;;;;;4812187;29;20055;-74
2023/05/02 09:41:57;;;;;;;8.75;2.15;;;16.30;59.80;;;;;;4811430;29;20039;-76
2023/05/02 09:44:36;;;;;;;19.60;2.13;;;16.30;59.70;;;;;;4811128;29;20126;-76
2023/05/02 09:47:01;;;;;;;17.90;2.50;;;16.30;59.60;;;;;;4810493;29;20081;-77
2023/05/02 09:49:43;;;;;;;23.13;2.75;;;16.20;59.20;;;;;;4780371;29;20055;-79
2023/05/02 09:52:22;;;;;;;12.95;2.40;;;16.20;59.90;;;;;;4811162;29;20047;-78
2023/05/02 09:54:52;;;;;;;22.52;2.58;;;16.20;60.40;;;;;;4795358;29;20359;-78
2023/05/02 09:57:18;;;;;;;19.40;2.58;;;16.20;60.70;;;;;;4808733;29;20450;-75
2023/05/02 09:59:55;;;;;;;20.52;3.03;;;16.20;62.10;;;;;;4807704;29;20098;-75
2023/05/02 10:02:21;;;;;;;16.65;2.50;;;16.20;62.40;;;;;;4794690;29;20071;-78
2023/05/02 10:04:48;;;;;;;22.58;3.47;;;16.20;62.20;;;;;;4811552;29;20362;-73
2023/05/02 10:07:16;;;;;;;23.65;2.75;;;16.20;62.20;;;;;;4811520;29;20328;-73
2023/05/02 10:09:46;;;;;;;18.85;3.45;;;16.20;62.20;;;;;;4811045;29;20062;-74
2023/05/02 10:12:14;;;;;;;21.00;3.15;;;16.20;62.20;;;;;;4810915;29;20407;-73
2023/05/02 10:14:42;;;;;;;32.58;4.20;;;16.10;62.10;;;;;;4810507;29;20047;-73
2023/05/02 10:17:13;;;;;;;20.40;3.20;;;16.20;62.10;;;;;;4810822;29;20413;-76
2023/05/02 10:19:51;;;;;;;30.85;3.50;;;16.10;61.80;;;;;;4810410;29;20479;-75
2023/05/02 10:22:21;;;;;;;26.23;3.47;;;16.10;61.70;;;;;;4795015;29;20136;-76
2023/05/02 10:24:52;;;;;;;23.95;3.40;;;16.10;61.70;;;;;;4811215;29;20058;-75
2023/05/02 10:27:18;;;;;;;18.27;3.00;;;16.00;60.90;;;;;;4794850;29;20519;-74
2023/05/02 10:29:45;;;;;;;17.13;2.70;;;16.00;60.80;;;;;;4795099;29;20093;-74
2023/05/02 10:32:13;;;;;;;14.25;2.47;;;15.90;60.50;;;;;;4810913;29;20142;-75
2023/05/02 10:34:40;;;;;;;15.00;2.13;;;15.90;60.40;;;;;;4810845;29;20395;-76
2023/05/02 10:37:06;;;;;;;19.17;2.38;;;15.90;60.60;;;;;;4810740;29;20191;-74
2023/05/02 10:39:32;;;;;;;7.88;1.30;;;15.90;60.70;;;;;;4810132;29;20145;-76
2023/05/02 10:42:03;;;;;;;11.05;2.05;;;15.80;60.80;;;;;;4810353;29;20046;-74
2023/05/02 10:44:33;;;;;;;10.43;1.75;;;15.80;61.00;;;;;;4810542;29;20054;-74
2023/05/02 10:46:59;;;;;;;16.02;1.92;;;15.80;61.20;;;;;;4810550;29;20050;-75
2023/05/02 10:49:26;;;;;;;12.27;1.85;;;15.80;61.40;;;;;;4810783;29;20129;-74
2023/05/02 10:51:52;;;;;;;12.57;2.35;;;15.80;61.60;;;;;;4810736;29;20051;-75
2023/05/02 10:54:21;;;;;;;8.32;1.42;;;15.80;61.70;;;;;;4811073;29;20061;-75
2023/05/02 10:57:02;;;;;;;13.43;1.88;;;15.80;61.80;;;;;;4794757;29;20147;-75
2023/05/02 10:59:41;;;;;;;10.32;2.38;;;15.80;62.00;;;;;;4809936;29;20069;-75
2023/05/02 11:02:23;;;;;;;5.68;1.30;;;15.80;62.10;;;;;;4810279;29;20474;-75
2023/05/02 11:05:06;;;;;;;9.00;1.58;;;15.80;62.20;;;;;;4810096;29;20059;-75
2023/05/02 11:07:36;;;;;;;8.43;1.88;;;15.80;62.30;;;;;;4794545;29;20491;-76
2023/05/02 11:10:17;;;;;;;9.70;1.70;;;15.80;62.30;;;;;;4810808;29;20046;-75
2023/05/02 11:12:49;;;;;;;5.43;1.33;;;15.80;62.30;;;;;;4794319;29;20062;-75
2023/05/02 11:15:41;;;;;;;8.02;1.75;;;15.80;62.40;;;;;;4794085;29;20055;-74
2023/05/02 11:18:11;;;;;;;6.97;1.73;;;15.80;62.40;;;;;;4793976;29;20050;-76
2023/05/02 11:20:39;;;;;;;10.00;1.90;;;15.80;62.50;;;;;;4794270;29;20071;-76
2023/05/02 11:23:20;;;;;;;9.07;1.50;;;15.80;62.30;;;;;;4809779;29;20059;-75
2023/05/02 11:25:56;;;;;;;9.23;1.50;;;15.80;62.30;;;;;;4809881;29;20055;-74
2023/05/02 11:28:37;;;;;;;11.48;1.95;;;15.80;62.30;;;;;;4809096;29;20073;-74
2023/05/02 11:31:04;;;;;;;7.38;1.88;;;15.80;62.20;;;;;;4809778;29;20054;-75
2023/05/02 11:33:31;;;;;;;17.15;3.10;;;15.70;62.30;;;;;;4808756;29;20512;-76
2023/05/02 11:35:57;;;;;;;21.30;3.03;;;15.70;62.60;;;;;;4809523;29;20518;-78
2023/05/02 11:38:24;;;;;;;30.95;3.80;;;15.70;63.20;;;;;;4812264;29;20398;-82
2023/05/02 11:40:58;;;;;;;24.27;4.20;;;15.80;62.90;;;;;;4777968;29;20051;-83
2023/05/02 11:43:26;;;;;;;14.00;2.40;;;15.80;62.60;;;;;;4790918;29;20123;-83
2023/05/02 11:46:00;;;;;;;29.05;3.50;;;15.90;62.70;;;;;;4778823;29;20050;-84
2023/05/02 11:48:26;;;;;;;17.75;2.70;;;15.90;62.90;;;;;;4793082;29;20079;-75
2023/05/02 11:51:02;;;;;;;8.32;1.45;;;15.90;62.80;;;;;;4809128;29;20047;-75
2023/05/02 11:53:28;;;;;;;6.53;1.65;;;16.00;57.40;;;;;;4809215;29;20108;-76
2023/05/02 11:59:59;;;;;;;6.03;0.90;;;15.80;53.00;;;;;;4783753;30;20094;-74
2023/05/02 12:02:44;;;;;;;10.00;1.42;;;15.60;53.00;;;;;;4776043;30;20477;-72
2023/05/02 12:05:12;;;;;;;9.90;1.63;;;15.40;52.80;;;;;;4778235;30;20142;-73
2023/05/02 12:07:40;;;;;;;6.60;1.63;;;15.40;53.40;;;;;;4773181;30;20116;-74
2023/05/02 12:10:07;;;;;;;10.57;1.75;;;15.30;54.20;;;;;;4773190;30;20071;-74
2023/05/02 12:12:33;;;;;;;10.05;1.65;;;15.30;55.00;;;;;;4773342;30;20088;-74
2023/05/02 12:15:07;;;;;;;21.02;3.15;;;15.30;55.70;;;;;;4788046;30;20058;-74
2023/05/02 12:17:36;;;;;;;19.65;1.90;;;15.40;56.50;;;;;;4790915;30;20113;-74
2023/05/02 12:20:03;;;;;;;12.05;1.35;;;15.40;57.00;;;;;;4774284;30;20051;-77
2023/05/02 12:22:30;;;;;;;17.85;2.40;;;15.50;57.80;;;;;;4786998;30;20087;-74
2023/05/02 12:24:59;;;;;;;13.40;1.83;;;15.50;58.20;;;;;;4781761;30;20192;-75
2023/05/02 12:27:26;;;;;;;14.32;2.17;;;15.60;58.10;;;;;;4774029;30;20063;-79
2023/05/02 12:29:52;;;;;;;26.33;3.33;;;15.60;58.00;;;;;;4759967;30;20130;-79
2023/05/02 12:32:32;;;;;;;19.75;2.25;;;15.70;57.90;;;;;;4788562;30;20119;-74
2023/05/02 12:34:59;;;;;;;16.50;2.22;;;15.60;57.10;;;;;;4772005;30;20126;-74
2023/05/02 12:37:26;;;;;;;14.23;2.50;;;15.70;57.20;;;;;;4781110;30;20489;-75
2023/05/02 12:39:52;;;;;;;11.73;1.92;;;15.70;57.40;;;;;;4785741;30;20059;-76
2023/05/02 12:42:22;;;;;;;18.38;2.45;;;15.60;57.50;;;;;;4789877;30;20463;-78
2023/05/02 12:44:52;;;;;;;12.60;1.75;;;15.70;57.70;;;;;;4784879;29;20055;-75
2023/05/02 12:47:21;;;;;;;5.95;0.90;;;15.70;57.70;;;;;;4786240;29;20063;-75
2023/05/02 12:49:47;;;;;;;7.38;1.00;;;15.70;56.50;;;;;;4778585;30;20071;-74
2023/05/02 12:52:13;;;;;;;9.27;0.90;;;15.70;55.50;;;;;;4783025;30;20469;-77
2023/05/02 12:54:39;;;;;;;6.47;0.77;;;15.70;54.40;;;;;;4789608;30;20130;-75
2023/05/02 12:57:05;;;;;;;3.03;0.20;;;15.70;53.50;;;;;;4788730;30;20451;-78
2023/05/02 12:59:31;;;;;;;6.35;0.40;;;15.60;52.80;;;;;;4819519;29;20067;-77
2023/05/02 13:01:58;;;;;;;8.55;0.88;;;15.70;52.40;;;;;;4807513;29;20532;-77
2023/05/02 13:04:38;;;;;;;3.97;0.65;;;15.60;52.40;;;;;;4806973;29;20054;-77
2023/05/02 13:07:04;;;;;;;1.77;0.40;;;15.60;52.50;;;;;;4806271;29;20051;-76
2023/05/02 13:09:30;;;;;;;4.68;0.50;;;15.60;52.70;;;;;;4803211;29;20170;-77
2023/05/02 13:11:57;;;;;;;3.60;0.60;;;15.60;53.20;;;;;;4807278;29;20355;-77
2023/05/02 13:14:24;;;;;;;1.45;0.40;;;15.60;54.10;;;;;;4808199;29;20535;-77
2023/05/02 13:16:53;;;;;;;2.75;0.57;;;15.60;54.30;;;;;;4807800;29;20458;-77
2023/05/02 13:19:22;;;;;;;3.17;0.60;;;15.60;54.80;;;;;;4806117;29;20059;-77
2023/05/02 13:21:48;;;;;;;2.80;0.75;;;15.60;55.20;;;;;;4797089;29;20092;-76
2023/05/02 13:24:16;;;;;;;6.75;0.90;;;15.70;55.60;;;;;;4807932;29;20050;-77
2023/05/02 13:26:42;;;;;;;5.78;0.82;;;15.70;55.00;;;;;;4807833;29;20060;-75
2023/05/02 13:29:10;;;;;;;5.60;0.60;;;15.70;55.00;;;;;;4806936;29;20090;-78
2023/05/02 13:31:36;;;;;;;5.10;1.13;;;15.70;55.30;;;;;;4807997;29;20450;-77
2023/05/02 13:34:03;;;;;;;7.32;0.82;;;15.70;55.70;;;;;;4807446;29;20439;-79
2023/05/02 13:36:29;;;;;;;15.63;1.48;;;15.80;55.70;;;;;;4806425;29;20055;-75
2023/05/02 13:38:55;;;;;;;4.18;0.60;;;15.80;55.60;;;;;;4803916;29;20050;-75
2023/05/02 13:41:23;;;;;;;9.93;1.58;;;15.80;54.90;;;;;;4822405;29;20407;-76
2023/05/02 13:43:49;;;;;;;4.38;0.55;;;15.80;54.20;;;;;;4806787;29;20059;-74
2023/05/02 13:46:15;;;;;;;50.47;4.68;;;15.70;53.70;;;;;;4807912;29;20137;-75
2023/05/02 13:48:41;;;;;;;4.32;0.60;;;15.70;53.50;;;;;;4807902;29;20184;-76
2023/05/02 13:51:07;;;;;;;4.50;0.63;;;15.70;52.20;;;;;;4806809;29;20054;-75
2023/05/02 13:53:33;;;;;;;5.65;0.70;;;15.60;52.10;;;;;;4806579;29;20066;-78
2023/05/02 13:55:59;;;;;;;4.93;0.70;;;15.60;51.80;;;;;;4807217;29;20451;-75
2023/05/02 13:58:24;;;;;;;3.05;0.90;;;15.50;51.40;;;;;;4805914;29;20066;-75
2023/05/02 14:00:50;;;;;;;3.50;0.90;;;15.40;50.80;;;;;;4808371;29;20449;-78
2023/05/02 14:03:16;;;;;;;5.22;0.60;;;15.30;50.70;;;;;;4783482;29;20395;-76
2023/05/02 14:05:42;;;;;;;4.00;0.80;;;15.10;51.80;;;;;;4807874;29;20062;-73
2023/05/02 14:08:11;;;;;;;6.57;0.55;;;15.10;52.50;;;;;;4804055;29;20401;-74
2023/05/02 14:10:37;;;;;;;2.92;0.68;;;15.10;52.00;;;;;;4789375;30;20477;-73
2023/05/02 14:13:04;;;;;;;4.65;0.88;;;15.10;51.40;;;;;;4800055;29;20466;-73
2023/05/02 14:15:30;;;;;;;5.03;0.90;;;15.00;50.90;;;;;;4807601;29;20047;-75
2023/05/02 14:17:56;;;;;;;4.13;0.85;;;14.90;51.00;;;;;;4806313;29;20051;-74
2023/05/02 14:20:24;;;;;;;3.00;0.93;;;14.80;52.10;;;;;;4822201;29;20059;-72
2023/05/02 14:22:50;;;;;;;6.57;1.00;;;14.80;53.00;;;;;;4807493;29;20085;-74
2023/05/02 14:25:18;;;;;;;9.48;1.15;;;14.80;54.30;;;;;;4809870;29;20474;-74
2023/05/02 14:27:45;;;;;;;9.55;1.02;;;14.90;55.00;;;;;;4810100;29;20378;-74
2023/05/02 14:30:11;;;;;;;5.60;0.75;;;15.00;55.00;;;;;;4811169;29;20100;-75
2023/05/02 14:32:37;;;;;;;9.57;1.05;;;15.20;55.20;;;;;;4809815;29;20090;-74
2023/05/02 14:35:03;;;;;;;9.25;1.17;;;15.30;55.30;;;;;;4810554;29;20359;-75
2023/05/02 14:37:28;;;;;;;13.63;1.42;;;15.40;55.70;;;;;;4809709;29;20097;-75
2023/05/02 14:39:55;;;;;;;18.83;3.10;;;15.50;55.90;;;;;;4810471;29;20100;-73
2023/05/02 14:42:26;;;;;;;19.15;3.35;;;15.60;56.70;;;;;;4810729;29;20055;-76
2023/05/02 14:44:52;;;;;;;18.17;3.90;;;15.60;58.10;;;;;;4810156;29;20067;-77
2023/05/02 14:47:18;;;;;;;20.15;2.88;;;15.70;59.50;;;;;;4809424;29;20047;-75
2023/05/02 14:49:44;;;;;;;30.92;3.95;;;15.70;59.10;;;;;;4809304;29;20179;-75
2023/05/02 14:52:09;;;;;;;25.00;3.63;;;15.80;59.30;;;;;;4789406;29;20124;-76
2023/05/02 14:54:35;;;;;;;26.63;4.13;;;15.80;59.00;;;;;;4806362;29;20056;-75
2023/05/02 14:57:02;;;;;;;19.65;2.83;;;15.80;58.50;;;;;;4810404;29;20061;-79
2023/05/02 14:59:29;;;;;;;19.85;3.28;;;15.90;58.10;;;;;;4810175;29;20135;-76
2023/05/02 15:01:55;;;;;;;19.88;3.25;;;15.90;57.70;;;;;;4793864;29;20058;-81
2023/05/02 15:04:20;;;;;;;21.00;3.33;;;15.90;57.50;;;;;;4794454;29;20054;-78
2023/05/02 15:06:46;;;;;;;27.48;3.60;;;15.90;57.50;;;;;;4810446;29;20409;-75
2023/05/02 15:09:13;;;;;;;19.23;3.10;;;15.90;57.60;;;;;;4810341;29;20105;-70
2023/05/02 15:11:39;;;;;;;25.73;3.35;;;15.90;57.70;;;;;;4803783;29;20131;-72
2023/05/02 15:14:05;;;;;;;17.35;2.90;;;15.90;57.80;;;;;;4809968;29;20459;-72
2023/05/02 15:16:30;;;;;;;34.08;5.32;;;15.90;57.90;;;;;;4809459;29;20458;-70
2023/05/02 15:18:56;;;;;;;23.25;3.47;;;15.90;58.40;;;;;;4777372;29;20047;-71
2023/05/02 15:21:22;;;;;;;17.85;2.85;;;15.90;58.10;;;;;;4799660;29;20051;-72
2023/05/02 15:23:48;;;;;;;22.10;2.95;;;15.90;57.30;;;;;;4793519;29;20352;-75
2023/05/02 15:26:17;;;;;;;30.02;3.75;;;16.00;57.00;;;;;;4802734;29;20502;-77
2023/05/02 15:28:42;;;;;;;17.63;2.45;;;15.90;56.90;;;;;;4809883;29;20039;-75
2023/05/02 15:31:08;;;;;;;27.23;4.55;;;15.90;57.90;;;;;;4793594;29;20091;-73
2023/05/02 15:33:34;;;;;;;27.55;3.72;;;15.90;58.60;;;;;;4806880;29;20114;-73
2023/05/02 15:35:59;;;;;;;26.65;3.47;;;15.90;59.30;;;;;;4808641;29;20123;-74
2023/05/02 15:38:25;;;;;;;21.45;3.08;;;15.90;59.80;;;;;;4809542;29;20340;-75
2023/05/02 15:40:54;;;;;;;33.03;4.50;;;15.90;60.00;;;;;;4809815;29;20046;-74
2023/05/02 15:43:20;;;;;;;25.77;3.40;;;16.00;61.20;;;;;;4793373;29;20130;-72
2023/05/02 15:45:50;;;;;;;23.15;3.67;;;16.00;61.90;;;;;;4809104;29;20051;-72
2023/05/02 15:48:16;;;;;;;28.95;4.35;;;16.00;61.80;;;;;;4809487;29;20054;-72
2023/05/02 15:50:42;;;;;;;38.05;4.53;;;16.00;61.60;;;;;;4809528;29;20196;-72
2023/05/02 15:53:07;;;;;;;32.50;4.95;;;16.00;61.80;;;;;;4809897;29;20450;-74
2023/05/02 15:55:34;;;;;;;29.73;4.68;;;16.10;62.10;;;;;;4808892;29;20058;-73
2023/05/02 15:57:59;;;;;;;39.47;4.97;;;16.10;62.50;;;;;;4808954;29;20374;-73
2023/05/02 16:00:25;;;;;;;34.78;3.75;;;16.10;62.90;;;;;;4807993;29;20067;-72
2023/05/02 16:02:51;;;;;;;28.20;4.35;;;16.10;63.50;;;;;;4809576;29;20157;-73
2023/05/02 16:05:17;;;;;;;28.23;4.50;;;16.10;64.00;;;;;;4802612;29;20055;-72
2023/05/02 16:07:42;;;;;;;24.60;2.83;;;16.10;64.60;;;;;;4791019;30;20066;-73
2023/05/02 16:10:09;;;;;;;28.58;3.90;;;16.10;64.90;;;;;;4791066;30;20051;-72
2023/05/02 16:12:35;;;;;;;41.70;4.47;;;16.10;64.90;;;;;;4791028;30;20456;-73
2023/05/02 16:15:00;;;;;;;41.75;3.78;;;16.10;64.90;;;;;;4795105;29;20058;-73
2023/05/02 16:17:26;;;;;;;34.40;3.53;;;16.10;65.00;;;;;;4802999;29;20536;-71
2023/05/02 16:19:52;;;;;;;37.78;4.88;;;16.10;64.90;;;;;;4808446;29;20079;-72
2023/05/02 16:22:17;;;;;;;47.90;6.22;;;16.20;65.00;;;;;;4792828;29;20489;-71
2023/05/02 16:24:43;;;;;;;41.97;5.32;;;16.20;65.10;;;;;;4808378;29;20069;-73
2023/05/02 16:27:09;;;;;;;37.72;4.53;;;16.10;65.10;;;;;;4808932;29;20177;-72
2023/05/02 16:29:34;;;;;;;42.13;5.25;;;16.10;65.10;;;;;;4808577;29;20070;-73
2023/05/02 16:32:00;;;;;;;42.72;4.22;;;16.10;65.20;;;;;;4806785;29;20055;-72
2023/05/02 16:34:26;;;;;;;31.27;3.97;;;16.10;65.30;;;;;;4792859;29;20047;-72
2023/05/02 16:36:52;;;;;;;24.35;3.58;;;16.20;65.80;;;;;;4808758;29;20047;-71
2023/05/02 16:39:17;;;;;;;24.27;2.67;;;16.20;65.10;;;;;;4792525;29;20196;-71
2023/05/02 16:41:43;;;;;;;22.25;2.65;;;16.20;62.70;;;;;;4808880;29;20043;-73
2023/05/02 16:44:09;;;;;;;20.58;2.28;;;16.20;60.90;;;;;;4808762;29;20058;-75
2023/05/02 16:46:36;;;;;;;14.15;2.85;;;16.20;60.80;;;;;;4807693;29;20047;-72
2023/05/02 16:49:01;;;;;;;20.00;2.72;;;16.10;60.80;;;;;;4808324;29;20054;-73
2023/05/02 16:51:27;;;;;;;28.92;3.67;;;16.10;60.90;;;;;;4808644;29;20050;-72
2023/05/02 16:53:55;;;;;;;36.05;4.55;;;16.10;61.00;;;;;;4806437;29;20058;-72
2023/05/02 16:56:21;;;;;;;27.20;2.83;;;16.10;61.10;;;;;;4807815;29;20054;-73
2023/05/02 16:58:47;;;;;;;14.90;2.45;;;16.10;61.10;;;;;;4808119;29;20095;-73
2023/05/02 17:01:12;;;;;;;18.25;3.13;;;16.10;61.10;;;;;;4808113;29;20082;-74
2023/05/02 17:03:40;;;;;;;33.47;4.68;;;16.10;61.20;;;;;;4808132;29;20051;-72
2023/05/02 17:06:06;;;;;;;20.60;3.25;;;16.00;61.10;;;;;;4792117;29;20058;-71